createdAt,value
2017-03-18T00:00:09.829Z,8.23
2017-03-18T00:00:50.411Z,8.16
2017-03-18T00:01:31.060Z,8.1
2017-03-18T00:02:11.641Z,8.12
2017-03-18T00:02:52.238Z,8.23
2017-03-18T00:03:32.818Z,8.15
2017-03-18T00:04:13.425Z,8.12
2017-03-18T00:04:53.991Z,8.12
2017-03-18T00:05:34.565Z,8.15
2017-03-18T00:06:15.159Z,8.18
2017-03-18T00:06:55.753Z,8.12
2017-03-18T00:07:36.322Z,8.16
2017-03-18T00:08:16.920Z,8.18
2017-03-18T00:08:57.501Z,8.1
2017-03-18T00:09:38.160Z,8.18
2017-03-18T00:10:18.736Z,8.1
2017-03-18T00:10:59.300Z,8.15
2017-03-18T00:11:39.918Z,8.12
2017-03-18T00:12:20.495Z,8.09
2017-03-18T00:13:01.110Z,8.18
2017-03-18T00:13:41.677Z,8.15
2017-03-18T00:14:22.249Z,8.06
2017-03-18T00:15:02.876Z,8
2017-03-18T00:15:43.454Z,8.03
2017-03-18T00:16:24.029Z,8.06
2017-03-18T00:17:04.621Z,8.09
2017-03-18T00:17:45.205Z,8.12
2017-03-18T00:18:25.823Z,8.03
2017-03-18T00:19:06.408Z,8.03
2017-03-18T00:19:47.029Z,8.05
2017-03-18T00:20:27.616Z,8.06
2017-03-18T00:21:08.210Z,8.05
2017-03-18T00:21:48.777Z,8.03
2017-03-18T00:22:29.342Z,8.01
2017-03-18T00:23:09.904Z,8
2017-03-18T00:23:50.504Z,7.9
2017-03-18T00:24:31.120Z,8.01
2017-03-18T00:25:11.702Z,8.01
2017-03-18T00:25:52.298Z,8.01
2017-03-18T00:26:32.894Z,8.06
2017-03-18T00:27:13.500Z,8.06
2017-03-18T00:27:54.080Z,7.93
2017-03-18T00:28:34.672Z,7.88
2017-03-18T00:29:15.262Z,7.93
2017-03-18T00:29:55.860Z,7.93
2017-03-18T00:30:36.450Z,7.9
2017-03-18T00:31:17.029Z,7.97
2017-03-18T00:31:57.612Z,7.95
2017-03-18T00:32:38.183Z,7.91
2017-03-18T00:33:18.791Z,7.93
2017-03-18T00:33:59.363Z,7.98
2017-03-18T00:34:39.986Z,7.91
2017-03-18T00:35:20.570Z,7.91
2017-03-18T00:36:01.157Z,7.91
2017-03-18T00:36:41.758Z,7.97
2017-03-18T00:37:22.354Z,7.88
2017-03-18T00:38:02.964Z,7.93
2017-03-18T00:38:43.518Z,7.97
2017-03-18T00:39:24.120Z,7.93
2017-03-18T00:40:04.694Z,7.91
2017-03-18T00:40:45.312Z,7.98
2017-03-18T00:41:25.896Z,7.93
2017-03-18T00:42:06.504Z,7.98
2017-03-18T00:42:47.098Z,7.9
2017-03-18T00:43:27.725Z,8
2017-03-18T00:44:08.306Z,7.91
2017-03-18T00:44:48.912Z,8.03
2017-03-18T00:45:29.477Z,7.88
2017-03-18T00:46:10.057Z,7.97
2017-03-18T00:46:50.652Z,7.97
2017-03-18T00:47:31.224Z,7.93
2017-03-18T00:48:11.812Z,7.85
2017-03-18T00:48:52.402Z,7.82
2017-03-18T00:49:33.013Z,7.95
2017-03-18T00:50:13.635Z,7.83
2017-03-18T00:50:54.257Z,7.83
2017-03-18T00:51:34.830Z,7.93
2017-03-18T00:52:15.423Z,7.82
2017-03-18T00:52:56.009Z,7.83
2017-03-18T00:53:36.580Z,7.88
2017-03-18T00:54:17.164Z,7.85
2017-03-18T00:54:57.724Z,7.8
2017-03-18T00:55:38.330Z,7.88
2017-03-18T00:56:18.920Z,7.93
2017-03-18T00:56:59.486Z,7.9
2017-03-18T00:57:40.056Z,7.9
2017-03-18T00:58:20.626Z,7.87
2017-03-18T00:59:01.225Z,7.9
2017-03-18T00:59:41.820Z,7.88
2017-03-18T01:00:22.438Z,7.94
2017-03-18T01:01:03.035Z,7.9
2017-03-18T01:01:43.635Z,7.91
2017-03-18T01:02:24.231Z,7.9
2017-03-18T01:03:04.806Z,7.82
2017-03-18T01:03:45.401Z,7.79
2017-03-18T01:04:25.980Z,7.88
2017-03-18T01:05:06.634Z,7.82
2017-03-18T01:05:47.319Z,7.77
2017-03-18T01:06:27.904Z,7.8
2017-03-18T01:07:08.472Z,7.77
2017-03-18T01:07:49.090Z,7.88
2017-03-18T01:08:29.635Z,7.77
2017-03-18T01:09:10.252Z,7.87
2017-03-18T01:09:50.855Z,7.87
2017-03-18T01:10:31.427Z,7.9
2017-03-18T01:11:12.022Z,7.9
2017-03-18T01:11:52.639Z,7.94
2017-03-18T01:12:33.204Z,7.82
2017-03-18T01:13:13.843Z,7.85
2017-03-18T01:13:54.427Z,7.88
2017-03-18T01:14:35.024Z,7.94
2017-03-18T01:15:15.595Z,7.87
2017-03-18T01:15:56.190Z,7.85
2017-03-18T01:16:36.764Z,7.98
2017-03-18T01:17:17.367Z,7.85
2017-03-18T01:17:57.956Z,7.87
2017-03-18T01:18:38.547Z,7.82
2017-03-18T01:19:19.182Z,7.82
2017-03-18T01:19:59.805Z,7.91
2017-03-18T01:20:40.410Z,7.93
2017-03-18T01:21:21.007Z,7.9
2017-03-18T01:22:01.582Z,7.9
2017-03-18T01:22:42.193Z,7.82
2017-03-18T01:23:22.862Z,7.77
2017-03-18T01:24:03.513Z,7.76
2017-03-18T01:24:44.079Z,7.77
2017-03-18T01:25:24.656Z,7.75
2017-03-18T01:26:05.242Z,7.82
2017-03-18T01:26:45.821Z,7.82
2017-03-18T01:27:27.319Z,7.82
2017-03-18T01:28:07.659Z,7.73
2017-03-18T01:28:48.269Z,7.79
2017-03-18T01:29:28.849Z,7.77
2017-03-18T01:30:09.422Z,7.69
2017-03-18T01:30:50.003Z,7.76
2017-03-18T01:31:30.593Z,7.75
2017-03-18T01:32:11.190Z,7.73
2017-03-18T01:32:51.799Z,7.75
2017-03-18T01:33:32.485Z,7.73
2017-03-18T01:34:13.122Z,7.82
2017-03-18T01:34:53.770Z,7.75
2017-03-18T01:35:34.313Z,7.72
2017-03-18T01:36:14.960Z,7.63
2017-03-18T01:36:55.527Z,7.66
2017-03-18T01:37:36.126Z,7.66
2017-03-18T01:38:16.710Z,7.6
2017-03-18T01:38:57.312Z,7.66
2017-03-18T01:39:37.911Z,7.66
2017-03-18T01:40:18.491Z,7.6
2017-03-18T01:40:59.117Z,7.63
2017-03-18T01:41:39.664Z,7.61
2017-03-18T01:42:20.281Z,7.6
2017-03-18T01:43:00.867Z,7.56
2017-03-18T01:43:41.464Z,7.51
2017-03-18T01:44:22.041Z,7.61
2017-03-18T01:45:02.617Z,7.5
2017-03-18T01:45:43.196Z,7.56
2017-03-18T01:46:23.784Z,7.5
2017-03-18T01:47:04.360Z,7.48
2017-03-18T01:47:44.968Z,7.45
2017-03-18T01:48:25.566Z,7.4
2017-03-18T01:49:06.168Z,7.38
2017-03-18T01:49:46.777Z,7.31
2017-03-18T01:50:27.355Z,7.43
2017-03-18T01:51:08.012Z,7.42
2017-03-18T01:51:48.582Z,7.4
2017-03-18T01:52:29.165Z,7.43
2017-03-18T01:53:09.754Z,7.33
2017-03-18T01:53:50.382Z,7.31
2017-03-18T01:54:30.985Z,7.29
2017-03-18T01:55:11.566Z,7.17
2017-03-18T01:55:52.416Z,7.14
2017-03-18T01:56:33.004Z,7.18
2017-03-18T01:57:13.596Z,7.15
2017-03-18T01:57:54.178Z,7.2
2017-03-18T01:58:34.777Z,7.15
2017-03-18T01:59:15.340Z,7.13
2017-03-18T01:59:55.944Z,7.03
2017-03-18T02:00:36.518Z,7.07
2017-03-18T02:01:17.082Z,7
2017-03-18T02:01:57.656Z,7.03
2017-03-18T02:02:38.259Z,7.07
2017-03-18T02:03:18.872Z,7.05
2017-03-18T02:03:59.476Z,6.96
2017-03-18T02:04:40.058Z,7
2017-03-18T02:05:20.710Z,6.99
2017-03-18T02:06:01.299Z,6.97
2017-03-18T02:06:41.876Z,6.95
2017-03-18T02:07:22.489Z,6.93
2017-03-18T02:08:03.069Z,6.92
2017-03-18T02:08:43.698Z,6.87
2017-03-18T02:09:24.269Z,6.84
2017-03-18T02:10:04.836Z,6.88
2017-03-18T02:10:45.415Z,6.87
2017-03-18T02:11:26.046Z,6.84
2017-03-18T02:12:06.624Z,6.81
2017-03-18T02:12:47.245Z,6.85
2017-03-18T02:13:27.860Z,6.89
2017-03-18T02:14:08.483Z,6.82
2017-03-18T02:14:49.059Z,6.84
2017-03-18T02:15:29.652Z,6.67
2017-03-18T02:16:10.230Z,6.74
2017-03-18T02:16:50.801Z,6.72
2017-03-18T02:17:31.400Z,6.64
2017-03-18T02:18:11.971Z,6.64
2017-03-18T02:18:52.554Z,6.6
2017-03-18T02:19:33.128Z,6.52
2017-03-18T02:20:13.748Z,6.57
2017-03-18T02:20:54.336Z,6.48
2017-03-18T02:21:34.920Z,6.45
2017-03-18T02:22:15.522Z,6.44
2017-03-18T02:22:56.138Z,6.46
2017-03-18T02:23:36.701Z,6.44
2017-03-18T02:24:17.322Z,6.46
2017-03-18T02:24:57.925Z,6.46
2017-03-18T02:25:38.550Z,6.38
2017-03-18T02:26:19.131Z,6.33
2017-03-18T02:26:59.719Z,6.31
2017-03-18T02:27:40.315Z,6.3
2017-03-18T02:28:20.892Z,6.3
2017-03-18T02:29:01.515Z,6.24
2017-03-18T02:29:42.115Z,6.19
2017-03-18T02:30:22.677Z,6.11
2017-03-18T02:31:03.280Z,6.14
2017-03-18T02:31:43.973Z,6.07
2017-03-18T02:32:24.495Z,6.08
2017-03-18T02:33:05.100Z,6.09
2017-03-18T02:33:45.703Z,5.98
2017-03-18T02:34:26.279Z,5.94
2017-03-18T02:35:06.866Z,5.9
2017-03-18T02:35:47.459Z,5.91
2017-03-18T02:36:28.067Z,5.93
2017-03-18T02:37:08.856Z,5.94
2017-03-18T02:37:49.481Z,5.79
2017-03-18T02:38:30.042Z,5.87
2017-03-18T02:39:10.612Z,5.86
2017-03-18T02:39:51.226Z,5.84
2017-03-18T02:40:31.805Z,5.79
2017-03-18T02:41:12.382Z,5.9
2017-03-18T02:41:53.005Z,5.76
2017-03-18T02:42:33.585Z,5.82
2017-03-18T02:43:14.184Z,5.76
2017-03-18T02:43:54.774Z,5.72
2017-03-18T02:44:35.339Z,5.76
2017-03-18T02:45:15.962Z,5.73
2017-03-18T02:45:56.746Z,5.73
2017-03-18T02:46:37.386Z,5.75
2017-03-18T02:47:17.957Z,5.79
2017-03-18T02:47:58.529Z,5.72
2017-03-18T02:48:39.149Z,5.73
2017-03-18T02:49:19.721Z,5.73
2017-03-18T02:50:00.288Z,5.66
2017-03-18T02:50:40.892Z,5.66
2017-03-18T02:51:21.489Z,5.66
2017-03-18T02:52:02.067Z,5.65
2017-03-18T02:52:42.667Z,5.61
2017-03-18T02:53:23.256Z,5.65
2017-03-18T02:54:03.876Z,5.56
2017-03-18T02:54:44.446Z,5.54
2017-03-18T02:55:25.012Z,5.51
2017-03-18T02:56:05.592Z,5.53
2017-03-18T02:56:46.152Z,5.41
2017-03-18T02:57:26.754Z,5.36
2017-03-18T02:58:07.377Z,5.46
2017-03-18T02:58:47.976Z,5.44
2017-03-18T02:59:28.553Z,5.39
2017-03-18T03:00:09.156Z,5.48
2017-03-18T03:00:49.732Z,5.41
2017-03-18T03:01:30.314Z,5.46
2017-03-18T03:02:10.906Z,5.47
2017-03-18T03:02:51.478Z,5.44
2017-03-18T03:03:32.054Z,5.36
2017-03-18T03:04:12.650Z,5.46
2017-03-18T03:04:53.231Z,5.36
2017-03-18T03:05:33.818Z,5.43
2017-03-18T03:06:14.454Z,5.44
2017-03-18T03:06:55.046Z,5.43
2017-03-18T03:07:35.651Z,5.46
2017-03-18T03:08:16.240Z,5.36
2017-03-18T03:08:56.826Z,5.39
2017-03-18T03:09:37.409Z,5.35
2017-03-18T03:10:18.003Z,5.36
2017-03-18T03:10:58.576Z,5.38
2017-03-18T03:11:39.227Z,5.38
2017-03-18T03:12:19.781Z,5.36
2017-03-18T03:13:00.379Z,5.41
2017-03-18T03:13:40.993Z,5.41
2017-03-18T03:14:21.606Z,5.32
2017-03-18T03:15:02.194Z,5.33
2017-03-18T03:15:42.788Z,5.41
2017-03-18T03:16:23.424Z,5.33
2017-03-18T03:17:04.006Z,5.3
2017-03-18T03:17:44.598Z,5.3
2017-03-18T03:18:25.188Z,5.29
2017-03-18T03:19:05.775Z,5.26
2017-03-18T03:19:46.367Z,5.23
2017-03-18T03:20:26.952Z,5.26
2017-03-18T03:21:07.530Z,5.28
2017-03-18T03:21:48.091Z,5.25
2017-03-18T03:22:28.667Z,5.25
2017-03-18T03:23:09.257Z,5.23
2017-03-18T03:23:49.865Z,5.25
2017-03-18T03:24:30.462Z,5.25
2017-03-18T03:25:11.037Z,5.21
2017-03-18T03:25:51.623Z,5.15
2017-03-18T03:26:32.191Z,5.21
2017-03-18T03:27:12.767Z,5.21
2017-03-18T03:27:53.348Z,5.21
2017-03-18T03:28:33.926Z,5.23
2017-03-18T03:29:14.514Z,5.2
2017-03-18T03:29:55.173Z,5.2
2017-03-18T03:30:35.700Z,5.25
2017-03-18T03:31:16.286Z,5.25
2017-03-18T03:31:56.882Z,5.17
2017-03-18T03:32:37.483Z,5.2
2017-03-18T03:33:18.064Z,5.2
2017-03-18T03:33:58.692Z,5.15
2017-03-18T03:34:39.258Z,5.21
2017-03-18T03:35:19.841Z,5.21
2017-03-18T03:36:00.459Z,5.14
2017-03-18T03:36:41.026Z,5.23
2017-03-18T03:37:21.612Z,5.25
2017-03-18T03:38:02.180Z,5.26
2017-03-18T03:38:42.748Z,5.15
2017-03-18T03:39:23.323Z,5.23
2017-03-18T03:40:03.930Z,5.17
2017-03-18T03:40:44.501Z,5.17
2017-03-18T03:41:25.083Z,5.14
2017-03-18T03:42:05.723Z,5.2
2017-03-18T03:42:46.310Z,5.18
2017-03-18T03:43:26.928Z,5.15
2017-03-18T03:44:07.506Z,5.21
2017-03-18T03:44:48.075Z,5.23
2017-03-18T03:45:28.731Z,5.17
2017-03-18T03:46:09.455Z,5.23
2017-03-18T03:46:50.033Z,5.18
2017-03-18T03:47:30.625Z,5.23
2017-03-18T03:48:11.204Z,5.26
2017-03-18T03:48:51.933Z,5.26
2017-03-18T03:49:32.535Z,5.17
2017-03-18T03:50:13.193Z,5.15
2017-03-18T03:50:53.989Z,5.17
2017-03-18T03:51:34.646Z,5.08
2017-03-18T03:52:15.630Z,5.05
2017-03-18T03:52:56.729Z,5.07
2017-03-18T03:53:37.422Z,5.07
2017-03-18T03:54:17.994Z,5.12
2017-03-18T03:54:58.569Z,5.1
2017-03-18T03:55:39.135Z,5.04
2017-03-18T03:56:19.706Z,5.05
2017-03-18T03:57:00.354Z,4.97
2017-03-18T03:57:41.100Z,5
2017-03-18T03:58:22.127Z,5.04
2017-03-18T03:59:03.147Z,4.97
2017-03-18T03:59:44.070Z,5
2017-03-18T04:00:25.065Z,4.97
2017-03-18T04:01:05.732Z,4.99
2017-03-18T04:01:46.300Z,5.08
2017-03-18T04:02:27.184Z,5
2017-03-18T04:03:07.942Z,5
2017-03-18T04:03:48.877Z,5.02
2017-03-18T04:04:29.451Z,4.99
2017-03-18T04:05:10.164Z,5.04
2017-03-18T04:05:51.153Z,5.02
2017-03-18T04:06:31.722Z,5.02
2017-03-18T04:07:12.298Z,4.9
2017-03-18T04:07:52.905Z,4.93
2017-03-18T04:08:33.471Z,4.96
2017-03-18T04:09:14.101Z,4.94
2017-03-18T04:09:54.718Z,4.94
2017-03-18T04:10:35.263Z,4.96
2017-03-18T04:11:15.848Z,4.94
2017-03-18T04:11:56.420Z,4.93
2017-03-18T04:12:37.010Z,4.96
2017-03-18T04:13:17.612Z,4.9
2017-03-18T04:13:58.216Z,4.94
2017-03-18T04:14:38.751Z,4.96
2017-03-18T04:15:19.339Z,4.87
2017-03-18T04:15:59.901Z,4.94
2017-03-18T04:16:40.490Z,4.9
2017-03-18T04:17:21.056Z,4.92
2017-03-18T04:18:01.630Z,4.87
2017-03-18T04:18:42.227Z,4.87
2017-03-18T04:19:22.796Z,4.74
2017-03-18T04:20:03.376Z,4.93
2017-03-18T04:20:43.967Z,4.75
2017-03-18T04:21:24.553Z,4.75
2017-03-18T04:22:05.131Z,4.86
2017-03-18T04:22:45.713Z,4.87
2017-03-18T04:23:26.283Z,4.92
2017-03-18T04:24:06.852Z,4.93
2017-03-18T04:24:47.450Z,4.78
2017-03-18T04:25:28.047Z,4.92
2017-03-18T04:26:08.621Z,4.87
2017-03-18T04:26:49.192Z,4.87
2017-03-18T04:27:29.755Z,4.93
2017-03-18T04:28:10.327Z,4.92
2017-03-18T04:28:50.905Z,4.92
2017-03-18T04:29:31.473Z,4.89
2017-03-18T04:30:12.045Z,4.93
2017-03-18T04:30:52.616Z,4.74
2017-03-18T04:31:33.181Z,4.92
2017-03-18T04:32:13.748Z,4.87
2017-03-18T04:32:54.338Z,4.86
2017-03-18T04:33:34.921Z,4.92
2017-03-18T04:34:15.491Z,4.89
2017-03-18T04:34:56.063Z,4.86
2017-03-18T04:35:36.630Z,4.86
2017-03-18T04:36:17.234Z,4.92
2017-03-18T04:36:57.837Z,4.89
2017-03-18T04:37:38.475Z,4.89
2017-03-18T04:38:19.083Z,4.84
2017-03-18T04:38:59.658Z,4.78
2017-03-18T04:39:40.247Z,4.89
2017-03-18T04:40:20.819Z,4.75
2017-03-18T04:41:01.396Z,4.78
2017-03-18T04:41:41.983Z,4.77
2017-03-18T04:42:22.570Z,4.77
2017-03-18T04:43:03.160Z,4.75
2017-03-18T04:43:43.765Z,4.78
2017-03-18T04:44:24.346Z,4.78
2017-03-18T04:45:04.995Z,4.74
2017-03-18T04:45:45.588Z,4.84
2017-03-18T04:46:26.180Z,4.8
2017-03-18T04:47:06.824Z,4.77
2017-03-18T04:47:47.413Z,4.74
2017-03-18T04:48:28.002Z,4.73
2017-03-18T04:49:08.592Z,4.86
2017-03-18T04:49:49.228Z,4.74
2017-03-18T04:50:29.825Z,4.73
2017-03-18T04:51:10.450Z,4.7
2017-03-18T04:51:51.034Z,4.68
2017-03-18T04:52:31.624Z,4.73
2017-03-18T04:53:12.233Z,4.7
2017-03-18T04:53:52.837Z,4.71
2017-03-18T04:54:33.394Z,4.74
2017-03-18T04:55:13.963Z,4.78
2017-03-18T04:55:54.560Z,4.75
2017-03-18T04:56:35.179Z,4.75
2017-03-18T04:57:15.785Z,4.77
2017-03-18T04:57:56.352Z,4.84
2017-03-18T04:58:37.044Z,4.92
2017-03-18T04:59:18.117Z,4.92
2017-03-18T04:59:59.687Z,4.86
2017-03-18T05:00:40.777Z,4.87
2017-03-18T05:01:21.466Z,4.87
2017-03-18T05:02:02.063Z,4.92
2017-03-18T05:02:42.665Z,4.89
2017-03-18T05:03:23.239Z,4.87
2017-03-18T05:04:03.841Z,4.93
2017-03-18T05:04:44.433Z,4.89
2017-03-18T05:05:25.000Z,4.74
2017-03-18T05:06:05.593Z,4.74
2017-03-18T05:06:46.172Z,4.75
2017-03-18T05:07:26.742Z,4.82
2017-03-18T05:08:07.338Z,4.77
2017-03-18T05:08:47.926Z,4.73
2017-03-18T05:09:28.534Z,4.73
2017-03-18T05:10:09.144Z,4.73
2017-03-18T05:10:49.781Z,4.87
2017-03-18T05:11:30.352Z,4.84
2017-03-18T05:12:10.952Z,4.92
2017-03-18T05:12:51.539Z,4.9
2017-03-18T05:13:32.113Z,4.89
2017-03-18T05:14:12.776Z,4.87
2017-03-18T05:14:53.360Z,4.94
2017-03-18T05:15:33.969Z,4.96
2017-03-18T05:16:14.572Z,4.92
2017-03-18T05:16:55.144Z,4.94
2017-03-18T05:17:35.725Z,4.94
2017-03-18T05:18:16.322Z,4.96
2017-03-18T05:18:56.945Z,4.94
2017-03-18T05:19:37.535Z,4.94
2017-03-18T05:20:18.111Z,4.93
2017-03-18T05:20:58.760Z,4.96
2017-03-18T05:21:39.368Z,4.96
2017-03-18T05:22:19.948Z,4.92
2017-03-18T05:23:00.546Z,4.96
2017-03-18T05:23:41.122Z,4.96
2017-03-18T05:24:21.708Z,4.96
2017-03-18T05:25:02.298Z,4.92
2017-03-18T05:25:42.872Z,5.05
2017-03-18T05:26:23.473Z,4.97
2017-03-18T05:27:04.095Z,4.99
2017-03-18T05:27:44.666Z,4.89
2017-03-18T05:28:25.256Z,4.93
2017-03-18T05:29:05.841Z,4.94
2017-03-18T05:29:46.420Z,4.99
2017-03-18T05:30:27.038Z,5.05
2017-03-18T05:31:07.562Z,4.96
2017-03-18T05:31:48.130Z,4.99
2017-03-18T05:32:28.702Z,5.02
2017-03-18T05:33:09.296Z,5.02
2017-03-18T05:33:49.894Z,5.04
2017-03-18T05:34:30.464Z,5.05
2017-03-18T05:35:11.116Z,5
2017-03-18T05:35:51.703Z,4.94
2017-03-18T05:36:32.315Z,5.05
2017-03-18T05:37:12.886Z,5
2017-03-18T05:37:53.475Z,5.04
2017-03-18T05:38:34.080Z,4.94
2017-03-18T05:39:14.711Z,4.97
2017-03-18T05:39:55.290Z,5
2017-03-18T05:40:35.945Z,5.12
2017-03-18T05:41:16.584Z,5
2017-03-18T05:41:57.143Z,5.04
2017-03-18T05:42:37.753Z,5.07
2017-03-18T05:43:18.331Z,5.07
2017-03-18T05:43:58.900Z,5
2017-03-18T05:44:39.781Z,5.02
2017-03-18T05:45:20.349Z,4.93
2017-03-18T05:46:00.931Z,5.02
2017-03-18T05:46:41.497Z,4.93
2017-03-18T05:47:22.099Z,4.99
2017-03-18T05:48:02.682Z,5.04
2017-03-18T05:48:43.259Z,5.04
2017-03-18T05:49:23.875Z,5
2017-03-18T05:50:04.496Z,5.08
2017-03-18T05:50:45.086Z,5.04
2017-03-18T05:51:25.772Z,5.08
2017-03-18T05:52:06.325Z,5.07
2017-03-18T05:52:46.887Z,5.07
2017-03-18T05:53:27.478Z,5.07
2017-03-18T05:54:08.061Z,5.08
2017-03-18T05:54:48.722Z,5.12
2017-03-18T05:55:29.357Z,5.17
2017-03-18T05:56:09.964Z,5.11
2017-03-18T05:56:50.551Z,5.15
2017-03-18T05:57:31.159Z,5.14
2017-03-18T05:58:11.791Z,5.14
2017-03-18T05:58:52.370Z,5.15
2017-03-18T05:59:32.946Z,5.23
2017-03-18T06:00:13.546Z,5.15
2017-03-18T06:00:54.164Z,5.17
2017-03-18T06:01:34.750Z,5.18
2017-03-18T06:02:15.358Z,5.2
2017-03-18T06:02:55.950Z,5.17
2017-03-18T06:03:36.567Z,5.28
2017-03-18T06:04:17.133Z,5.28
2017-03-18T06:04:57.720Z,5.23
2017-03-18T06:05:38.541Z,5.28
2017-03-18T06:06:19.114Z,5.23
2017-03-18T06:06:59.700Z,5.26
2017-03-18T06:07:40.288Z,5.26
2017-03-18T06:08:20.874Z,5.25
2017-03-18T06:09:01.483Z,5.15
2017-03-18T06:09:42.056Z,5.21
2017-03-18T06:10:22.654Z,5.25
2017-03-18T06:11:03.226Z,5.29
2017-03-18T06:11:43.806Z,5.2
2017-03-18T06:12:24.400Z,5.18
2017-03-18T06:13:04.981Z,5.2
2017-03-18T06:13:45.557Z,5.18
2017-03-18T06:14:26.125Z,5.18
2017-03-18T06:15:06.697Z,5.28
2017-03-18T06:15:47.278Z,5.25
2017-03-18T06:16:27.887Z,5.25
2017-03-18T06:17:08.562Z,5.25
2017-03-18T06:17:49.148Z,5.25
2017-03-18T06:18:29.752Z,5.21
2017-03-18T06:19:10.350Z,5.3
2017-03-18T06:19:50.916Z,5.3
2017-03-18T06:20:31.510Z,5.29
2017-03-18T06:21:12.120Z,5.3
2017-03-18T06:21:53.560Z,5.33
2017-03-18T06:22:34.127Z,5.26
2017-03-18T06:23:14.709Z,5.29
2017-03-18T06:23:55.327Z,5.28
2017-03-18T06:24:35.895Z,5.36
2017-03-18T06:25:16.469Z,5.28
2017-03-18T06:25:57.129Z,5.33
2017-03-18T06:26:37.721Z,5.32
2017-03-18T06:27:18.302Z,5.3
2017-03-18T06:27:58.863Z,5.3
2017-03-18T06:28:39.453Z,5.28
2017-03-18T06:29:20.058Z,5.35
2017-03-18T06:30:00.707Z,5.32
2017-03-18T06:30:41.275Z,5.3
2017-03-18T06:31:21.858Z,5.35
2017-03-18T06:32:02.489Z,5.32
2017-03-18T06:32:43.140Z,5.33
2017-03-18T06:33:23.775Z,5.35
2017-03-18T06:34:04.320Z,5.36
2017-03-18T06:34:44.949Z,5.28
2017-03-18T06:35:25.653Z,5.41
2017-03-18T06:36:06.365Z,5.38
2017-03-18T06:36:47.419Z,5.41
2017-03-18T06:37:28.105Z,5.38
2017-03-18T06:38:08.676Z,5.41
2017-03-18T06:38:49.256Z,5.33
2017-03-18T06:39:29.828Z,5.32
2017-03-18T06:40:10.483Z,5.3
2017-03-18T06:40:51.056Z,5.38
2017-03-18T06:41:31.668Z,5.29
2017-03-18T06:42:12.245Z,5.39
2017-03-18T06:42:52.959Z,5.46
2017-03-18T06:43:33.567Z,5.39
2017-03-18T06:44:14.196Z,5.43
2017-03-18T06:44:54.782Z,5.38
2017-03-18T06:45:35.362Z,5.44
2017-03-18T06:46:15.995Z,5.44
2017-03-18T06:46:56.599Z,5.53
2017-03-18T06:47:37.199Z,5.53
2017-03-18T06:48:17.785Z,5.57
2017-03-18T06:48:58.389Z,5.51
2017-03-18T06:49:39.145Z,5.53
2017-03-18T06:50:19.722Z,5.66
2017-03-18T06:51:00.287Z,5.66
2017-03-18T06:51:40.926Z,5.66
2017-03-18T06:52:21.566Z,5.71
2017-03-18T06:53:02.147Z,5.8
2017-03-18T06:53:42.739Z,5.98
2017-03-18T06:54:23.415Z,6.12
2017-03-18T06:55:03.968Z,6.35
2017-03-18T06:55:44.577Z,6.56
2017-03-18T06:56:25.148Z,6.59
2017-03-18T06:57:05.782Z,6.81
2017-03-18T06:57:46.379Z,6.84
2017-03-18T06:58:26.974Z,6.96
2017-03-18T06:59:07.596Z,7.02
2017-03-18T06:59:48.174Z,7.13
2017-03-18T07:00:28.749Z,7.2
2017-03-18T07:01:09.376Z,7.18
2017-03-18T07:01:49.973Z,7.25
2017-03-18T07:02:30.580Z,7.42
2017-03-18T07:03:11.162Z,7.4
2017-03-18T07:03:51.739Z,7.5
2017-03-18T07:04:32.327Z,7.57
2017-03-18T07:05:12.935Z,7.7
2017-03-18T07:05:53.528Z,7.79
2017-03-18T07:06:34.228Z,7.9
2017-03-18T07:07:14.756Z,7.97
2017-03-18T07:07:55.348Z,7.88
2017-03-18T07:08:35.951Z,8.01
2017-03-18T07:09:16.535Z,7.98
2017-03-18T07:09:57.137Z,8.13
2017-03-18T07:10:37.729Z,8.19
2017-03-18T07:11:18.326Z,8.18
2017-03-18T07:11:58.909Z,8.18
2017-03-18T07:12:39.532Z,8.33
2017-03-18T07:13:20.210Z,8.38
2017-03-18T07:14:00.794Z,8.38
2017-03-18T07:14:41.400Z,8.37
2017-03-18T07:15:22.218Z,8.38
2017-03-18T07:16:02.804Z,8.37
2017-03-18T07:16:43.422Z,8.34
2017-03-18T07:17:24.023Z,8.38
2017-03-18T07:18:04.594Z,8.48
2017-03-18T07:18:45.233Z,8.48
2017-03-18T07:19:25.814Z,8.53
2017-03-18T07:20:06.391Z,8.41
2017-03-18T07:20:47.024Z,8.34
2017-03-18T07:21:27.670Z,8.24
2017-03-18T07:22:08.248Z,8.06
2017-03-18T07:22:48.887Z,7.91
2017-03-18T07:23:29.573Z,7.79
2017-03-18T07:24:10.183Z,7.61
2017-03-18T07:24:50.961Z,7.57
2017-03-18T07:25:31.586Z,7.38
2017-03-18T07:26:12.203Z,7.32
2017-03-18T07:26:52.779Z,7.2
2017-03-18T07:27:33.577Z,7.23
2017-03-18T07:28:14.366Z,7.1
2017-03-18T07:28:54.965Z,7.03
2017-03-18T07:29:35.734Z,6.92
2017-03-18T07:30:16.340Z,6.89
2017-03-18T07:30:56.997Z,6.77
2017-03-18T07:31:37.614Z,6.77
2017-03-18T07:32:18.232Z,6.74
2017-03-18T07:32:58.910Z,6.69
2017-03-18T07:33:39.667Z,6.7
2017-03-18T07:34:20.812Z,6.57
2017-03-18T07:35:01.590Z,6.62
2017-03-18T07:35:43.174Z,6.7
2017-03-18T07:36:23.915Z,6.62
2017-03-18T07:37:04.751Z,6.64
2017-03-18T07:37:46.844Z,6.62
2017-03-18T07:38:27.780Z,6.63
2017-03-18T07:39:08.412Z,6.57
2017-03-18T07:39:49.009Z,6.56
2017-03-18T07:40:29.635Z,6.64
2017-03-18T07:41:10.238Z,6.56
2017-03-18T07:41:50.830Z,6.51
2017-03-18T07:42:31.434Z,6.51
2017-03-18T07:43:12.022Z,6.46
2017-03-18T07:43:52.618Z,6.42
2017-03-18T07:44:33.222Z,6.45
2017-03-18T07:45:13.815Z,6.36
2017-03-18T07:45:54.398Z,6.33
2017-03-18T07:46:34.986Z,6.33
2017-03-18T07:47:15.578Z,6.41
2017-03-18T07:47:56.182Z,6.35
2017-03-18T07:48:36.846Z,6.44
2017-03-18T07:49:17.423Z,6.35
2017-03-18T07:49:57.999Z,6.41
2017-03-18T07:50:38.618Z,6.36
2017-03-18T07:51:19.217Z,6.24
2017-03-18T07:51:59.780Z,6.35
2017-03-18T07:52:40.357Z,6.38
2017-03-18T07:53:20.976Z,6.45
2017-03-18T07:54:01.566Z,6.39
2017-03-18T07:54:42.128Z,6.35
2017-03-18T07:55:22.717Z,6.44
2017-03-18T07:56:03.307Z,6.36
2017-03-18T07:56:43.905Z,6.39
2017-03-18T07:57:24.491Z,6.42
2017-03-18T07:58:05.092Z,6.36
2017-03-18T07:58:45.698Z,6.42
2017-03-18T07:59:26.283Z,6.33
2017-03-18T08:00:06.859Z,6.42
2017-03-18T08:00:47.462Z,6.44
2017-03-18T08:01:28.070Z,6.36
2017-03-18T08:02:08.682Z,6.38
2017-03-18T08:02:49.262Z,6.36
2017-03-18T08:03:29.906Z,6.39
2017-03-18T08:04:10.521Z,6.42
2017-03-18T08:04:51.124Z,6.45
2017-03-18T08:05:31.763Z,6.44
2017-03-18T08:06:12.354Z,6.52
2017-03-18T08:06:52.959Z,6.45
2017-03-18T08:07:33.532Z,6.56
2017-03-18T08:08:14.101Z,6.46
2017-03-18T08:08:54.704Z,6.51
2017-03-18T08:09:35.288Z,6.45
2017-03-18T08:10:15.905Z,6.45
2017-03-18T08:10:56.505Z,6.49
2017-03-18T08:11:37.096Z,6.44
2017-03-18T08:12:17.673Z,6.56
2017-03-18T08:12:58.291Z,6.52
2017-03-18T08:13:38.887Z,6.51
2017-03-18T08:14:19.528Z,6.59
2017-03-18T08:15:00.106Z,6.59
2017-03-18T08:15:40.688Z,6.45
2017-03-18T08:16:21.252Z,6.59
2017-03-18T08:17:01.852Z,6.52
2017-03-18T08:17:42.448Z,6.56
2017-03-18T08:18:23.041Z,6.6
2017-03-18T08:19:03.729Z,6.64
2017-03-18T08:19:44.313Z,6.57
2017-03-18T08:20:24.917Z,6.62
2017-03-18T08:21:05.519Z,6.69
2017-03-18T08:21:46.101Z,6.69
2017-03-18T08:22:26.704Z,6.67
2017-03-18T08:23:07.312Z,6.77
2017-03-18T08:23:47.911Z,6.72
2017-03-18T08:24:40.189Z,6.72
2017-03-18T08:25:28.485Z,6.77
2017-03-18T08:26:09.746Z,6.72
2017-03-18T08:26:50.330Z,6.69
2017-03-18T08:27:30.953Z,6.69
2017-03-18T08:28:11.866Z,6.7
2017-03-18T08:28:53.301Z,6.69
2017-03-18T08:29:33.889Z,6.64
2017-03-18T08:30:14.478Z,6.7
2017-03-18T08:30:55.805Z,6.75
2017-03-18T08:31:37.060Z,6.75
2017-03-18T08:32:17.677Z,6.74
2017-03-18T08:32:58.589Z,6.77
2017-03-18T08:33:40.347Z,6.82
2017-03-18T08:34:20.920Z,6.77
2017-03-18T08:35:01.515Z,6.82
2017-03-18T08:35:42.130Z,6.74
2017-03-18T08:36:22.734Z,6.88
2017-03-18T08:37:03.329Z,6.84
2017-03-18T08:37:43.991Z,6.89
2017-03-18T08:38:24.607Z,6.87
2017-03-18T08:39:05.385Z,6.82
2017-03-18T08:39:45.983Z,6.81
2017-03-18T08:40:26.600Z,6.82
2017-03-18T08:41:07.272Z,6.84
2017-03-18T08:41:47.985Z,6.92
2017-03-18T08:42:28.605Z,6.87
2017-03-18T08:43:09.188Z,6.93
2017-03-18T08:43:49.819Z,6.89
2017-03-18T08:44:30.421Z,6.96
2017-03-18T08:45:11.049Z,6.88
2017-03-18T08:45:51.670Z,6.95
2017-03-18T08:46:32.242Z,6.99
2017-03-18T08:47:12.819Z,6.88
2017-03-18T08:47:53.449Z,7
2017-03-18T08:48:34.052Z,6.97
2017-03-18T08:49:14.708Z,7
2017-03-18T08:49:55.358Z,7
2017-03-18T08:50:35.985Z,6.96
2017-03-18T08:51:16.572Z,6.99
2017-03-18T08:51:57.181Z,6.97
2017-03-18T08:52:37.777Z,7.02
2017-03-18T08:53:18.412Z,7.13
2017-03-18T08:53:59.045Z,7.17
2017-03-18T08:54:39.739Z,7.18
2017-03-18T08:55:23.332Z,7.11
2017-03-18T08:56:03.890Z,7.21
2017-03-18T08:56:45.001Z,7.13
2017-03-18T08:57:25.866Z,7.2
2017-03-18T08:58:06.562Z,7.15
2017-03-18T08:58:47.178Z,7.18
2017-03-18T08:59:27.808Z,7.2
2017-03-18T09:00:08.440Z,7.18
2017-03-18T09:00:49.044Z,7.15
2017-03-18T09:01:29.665Z,7.23
2017-03-18T09:02:10.261Z,7.18
2017-03-18T09:02:51.109Z,7.2
2017-03-18T09:03:31.917Z,7.31